createdAt,value
2018-12-03T00:01:35.667Z,10.41
2018-12-03T00:03:11.316Z,10.40
2018-12-03T00:04:47.012Z,10.36
2018-12-03T00:06:24.242Z,10.36
2018-12-03T00:08:00.856Z,10.37
2018-12-03T00:09:39.797Z,10.41
2018-12-03T00:13:11.552Z,10.42
2018-12-03T00:17:08.020Z,10.41
2018-12-03T00:18:55.580Z,10.42
2018-12-03T00:26:59.142Z,10.34
2018-12-03T00:28:46.414Z,10.34
2018-12-03T00:34:37.527Z,10.28
2018-12-03T00:38:34.189Z,10.13
2018-12-03T00:42:09.557Z,10.08
2018-12-03T00:45:48.196Z,10.00
2018-12-03T00:50:17.892Z,9.98
2018-12-03T00:51:41.763Z,9.95
2018-12-03T00:53:30.179Z,9.92
2018-12-03T00:57:05.979Z,9.94
2018-12-03T00:58:29.980Z,9.92
2018-12-03T01:00:45.646Z,9.92
2018-12-03T01:02:40.333Z,9.91
2018-12-03T01:04:16.799Z,9.91
2018-12-03T01:05:53.178Z,9.87
2018-12-03T01:07:48.619Z,9.89
2018-12-03T01:09:26.743Z,9.85
2018-12-03T01:13:23.170Z,9.89
2018-12-03T01:15:18.717Z,9.89
2018-12-03T01:17:13.291Z,9.89
2018-12-03T01:18:49.617Z,9.90
2018-12-03T01:20:25.830Z,9.89
2018-12-03T01:22:21.182Z,9.91
2018-12-03T01:26:04.839Z,9.92
2018-12-03T01:27:40.963Z,9.93
2018-12-03T01:29:47.744Z,9.94
2018-12-03T01:31:24.884Z,9.97
2018-12-03T01:33:01.612Z,10.01
2018-12-03T01:34:37.796Z,10.09
2018-12-03T01:36:32.699Z,10.09
2018-12-03T01:39:54.903Z,10.12
2018-12-03T01:42:23.922Z,10.13
2018-12-03T01:43:48.585Z,10.14
2018-12-03T01:45:25.868Z,10.15
2018-12-03T01:47:02.544Z,10.18
2018-12-03T01:48:57.623Z,10.17
2018-12-03T01:52:35.988Z,10.20
2018-12-03T01:56:07.047Z,10.24
2018-12-03T01:58:22.043Z,10.26
2018-12-03T01:59:58.303Z,10.27
2018-12-03T02:01:53.686Z,10.29
2018-12-03T02:03:29.934Z,10.30
2018-12-03T02:05:07.226Z,10.30
2018-12-03T02:06:43.389Z,10.32
2018-12-03T02:08:52.609Z,10.33
2018-12-03T02:12:14.567Z,10.31
2018-12-03T02:13:50.823Z,10.32
2018-12-03T02:15:46.442Z,10.33
2018-12-03T02:17:22.597Z,10.34
2018-12-03T02:18:58.772Z,10.34
2018-12-03T02:20:34.852Z,10.33
2018-12-03T02:22:29.897Z,10.36
2018-12-03T02:24:06.130Z,10.35
2018-12-03T02:25:42.234Z,10.33
2018-12-03T02:27:21.082Z,10.33
2018-12-03T02:29:16.710Z,10.34
2018-12-03T02:31:04.120Z,10.34
2018-12-03T02:34:58.237Z,10.34
2018-12-03T02:36:34.588Z,10.33
2018-12-03T02:38:11.394Z,10.34
2018-12-03T02:40:26.776Z,10.33
2018-12-03T02:42:03.147Z,10.33
2018-12-03T02:43:39.944Z,10.33
2018-12-03T02:45:35.304Z,10.33
2018-12-03T02:47:11.512Z,10.34
2018-12-03T02:51:07.878Z,10.32
2018-12-03T02:54:39.153Z,10.32
2018-12-03T02:56:54.437Z,10.30
2018-12-03T03:01:20.952Z,10.32
2018-12-03T03:03:04.289Z,10.33
2018-12-03T03:05:03.017Z,10.31
2018-12-03T03:16:08.028Z,10.31
2018-12-03T03:19:45.445Z,10.32
2018-12-03T03:21:21.616Z,10.32
2018-12-03T03:24:59.916Z,10.32
2018-12-03T03:26:35.975Z,10.31
2018-12-03T03:34:27.111Z,10.36
2018-12-03T03:37:47.401Z,10.37
2018-12-03T03:39:23.427Z,10.37
2018-12-03T03:40:59.422Z,10.37
2018-12-03T03:42:35.519Z,10.37
2018-12-03T03:44:30.298Z,10.37
2018-12-03T03:46:06.963Z,10.38
2018-12-03T03:47:42.971Z,10.36
2018-12-03T03:53:49.046Z,10.38
2018-12-03T03:55:26.939Z,10.37
2018-12-03T03:57:21.765Z,10.35
2018-12-03T03:59:00.180Z,10.32
2018-12-03T04:00:36.132Z,10.30
2018-12-03T04:02:12.232Z,10.30
2018-12-03T04:08:09.463Z,10.27
2018-12-03T04:09:57.005Z,10.23
2018-12-03T04:14:03.705Z,10.21
2018-12-03T04:18:17.126Z,10.15
2018-12-03T04:24:10.974Z,10.12
2018-12-03T04:25:57.877Z,10.12
2018-12-03T04:28:13.283Z,10.11
2018-12-03T04:29:49.426Z,10.08
2018-12-03T04:34:04.558Z,10.10
2018-12-03T04:35:40.648Z,10.06
2018-12-03T04:39:59.923Z,10.05
2018-12-03T04:47:56.766Z,10.02
2018-12-03T04:50:11.741Z,10.01
2018-12-03T04:51:58.967Z,10.00
2018-12-03T04:53:46.059Z,10.00
2018-12-03T04:55:32.929Z,9.99
2018-12-03T04:57:59.691Z,9.96
2018-12-03T04:59:46.841Z,9.94
2018-12-03T05:01:22.935Z,9.90
2018-12-03T05:03:01.354Z,9.89
2018-12-03T05:06:52.895Z,9.87
2018-12-03T05:13:22.344Z,9.82
2018-12-03T05:15:09.303Z,9.83
2018-12-03T05:16:57.094Z,9.82
2018-12-03T05:18:44.896Z,9.82
2018-12-03T05:22:40.699Z,9.85
2018-12-03T05:26:37.571Z,9.82
2018-12-03T05:28:42.661Z,9.82
2018-12-03T05:32:27.390Z,9.83
2018-12-03T05:34:14.665Z,9.80
2018-12-03T05:36:11.365Z,9.82
2018-12-03T05:37:58.296Z,9.84
2018-12-03T05:42:05.956Z,9.87
2018-12-03T05:49:59.811Z,9.91
2018-12-03T05:53:46.867Z,9.91
2018-12-03T06:07:03.633Z,9.87
2018-12-03T06:08:51.608Z,9.86
2018-12-03T06:11:18.350Z,9.86
2018-12-03T06:17:19.598Z,9.86
2018-12-03T06:18:56.269Z,9.86
2018-12-03T06:20:35.812Z,9.84
2018-12-03T06:22:12.416Z,9.82
2018-12-03T06:23:49.423Z,9.84
2018-12-03T06:25:31.815Z,9.82
2018-12-03T06:27:08.604Z,9.82
2018-12-03T06:35:08.673Z,9.81
2018-12-03T06:39:02.456Z,9.82
2018-12-03T06:43:00.003Z,9.79
2018-12-03T06:44:54.903Z,9.79
2018-12-03T06:46:42.340Z,9.78
2018-12-03T06:48:28.086Z,9.78
2018-12-03T06:50:04.311Z,9.77
2018-12-03T06:51:43.995Z,9.73
2018-12-03T06:53:23.299Z,9.73
2018-12-03T06:54:59.540Z,9.75
2018-12-03T06:56:35.658Z,9.76
2018-12-03T06:58:11.778Z,9.75
2018-12-03T06:59:48.113Z,9.73
2018-12-03T07:02:03.199Z,9.75
2018-12-03T07:06:14.381Z,9.74
2018-12-03T07:07:38.162Z,9.73
2018-12-03T07:10:05.441Z,9.73
2018-12-03T07:11:44.865Z,9.75
2018-12-03T07:13:31.476Z,9.75
2018-12-03T07:15:19.063Z,9.75
2018-12-03T07:17:48.183Z,9.74
2018-12-03T07:23:26.500Z,9.69
2018-12-03T07:25:03.331Z,9.73
2018-12-03T07:26:42.397Z,9.73
2018-12-03T07:28:21.169Z,9.71
2018-12-03T07:29:57.915Z,9.72
2018-12-03T07:32:27.008Z,9.72
2018-12-03T07:34:29.961Z,9.69
2018-12-03T07:36:06.673Z,9.61
2018-12-03T07:37:43.279Z,9.55
2018-12-03T07:39:19.472Z,9.51
2018-12-03T07:40:55.958Z,9.40
2018-12-03T07:42:32.253Z,9.36
2018-12-03T07:44:11.465Z,9.28
2018-12-03T07:45:47.702Z,9.29
2018-12-03T07:47:24.110Z,9.25
2018-12-03T07:49:03.918Z,9.27
2018-12-03T07:50:40.321Z,9.28
2018-12-03T07:52:17.379Z,9.27
2018-12-03T07:53:54.219Z,9.26
2018-12-03T07:55:30.642Z,9.26
2018-12-03T07:57:07.896Z,9.26
2018-12-03T07:58:44.413Z,9.22
2018-12-03T08:02:38.409Z,9.26
2018-12-03T08:12:48.304Z,9.44
2018-12-03T08:14:37.737Z,9.36
2018-12-03T08:18:45.261Z,9.27
2018-12-03T08:20:58.843Z,9.24
2018-12-03T08:22:51.058Z,9.13
2018-12-03T08:29:16.338Z,9.04
2018-12-03T08:35:36.364Z,9.45
2018-12-03T08:47:52.700Z,9.40
2018-12-03T08:49:41.243Z,9.48
2018-12-03T08:51:22.840Z,9.52
2018-12-03T08:53:19.925Z,9.54
2018-12-03T08:55:10.347Z,9.57
2018-12-03T08:57:01.716Z,9.57
2018-12-03T08:58:43.229Z,9.60
2018-12-03T09:00:58.389Z,9.60
2018-12-03T09:02:49.559Z,9.63
2018-12-03T09:04:37.467Z,9.63
2018-12-03T09:07:18.348Z,9.64
2018-12-03T09:12:13.413Z,9.62
2018-12-03T09:13:54.403Z,9.40
2018-12-03T09:19:49.598Z,9.18
2018-12-03T09:21:30.082Z,9.16
2018-12-03T09:23:09.769Z,9.18
2018-12-03T09:24:46.230Z,9.21
2018-12-03T09:26:22.524Z,9.22
2018-12-03T09:28:00.683Z,9.30
2018-12-03T09:29:37.243Z,9.40
2018-12-03T09:31:25.661Z,9.48
2018-12-03T09:33:05.952Z,9.54
2018-12-03T09:34:49.547Z,9.57
2018-12-03T09:36:38.571Z,9.70
2018-12-03T09:38:19.845Z,9.74
2018-12-03T09:40:00.984Z,9.81
2018-12-03T09:41:44.786Z,9.83
2018-12-03T09:43:28.066Z,9.84
2018-12-03T09:45:21.898Z,9.91
2018-12-03T09:47:08.089Z,9.92
2018-12-03T09:48:46.680Z,10.04
2018-12-03T09:50:28.942Z,9.97
2018-12-03T09:52:08.208Z,9.94
2018-12-03T09:53:54.409Z,9.98
2018-12-03T09:55:32.038Z,10.05
2018-12-03T09:57:11.284Z,9.95
2018-12-03T09:58:48.259Z,9.90
2018-12-03T10:04:59.538Z,9.85
2018-12-03T10:06:56.048Z,9.85
2018-12-03T10:08:34.996Z,9.79
2018-12-03T10:10:24.759Z,9.80
2018-12-03T10:12:07.998Z,9.73
2018-12-03T10:13:51.466Z,9.71
2018-12-03T10:16:08.281Z,9.65
2018-12-03T10:20:22.827Z,9.62
2018-12-03T10:28:02.359Z,9.45
2018-12-03T10:29:51.266Z,9.46
2018-12-03T10:31:43.252Z,9.43
2018-12-03T10:36:23.209Z,9.39
2018-12-03T10:40:32.011Z,9.45
2018-12-03T10:42:22.806Z,9.34
2018-12-03T10:44:04.061Z,9.33
2018-12-03T10:47:56.252Z,9.40
2018-12-03T10:49:43.128Z,9.37
2018-12-03T10:56:08.131Z,9.46
2018-12-03T11:00:45.974Z,9.56
2018-12-03T11:04:59.675Z,9.60
2018-12-03T11:08:38.428Z,9.63
2018-12-03T11:10:17.561Z,9.68
2018-12-03T11:11:54.131Z,9.74
2018-12-03T11:13:30.758Z,9.73
2018-12-03T11:15:42.340Z,9.77
2018-12-03T11:17:49.748Z,9.65
2018-12-03T11:25:40.605Z,9.67
2018-12-03T11:29:22.295Z,9.63
2018-12-03T11:31:39.413Z,9.69
2018-12-03T11:33:16.323Z,9.68
2018-12-03T11:34:52.537Z,9.66
2018-12-03T11:36:56.056Z,9.76
2018-12-03T11:39:16.064Z,9.80
2018-12-03T11:41:02.377Z,9.92
2018-12-03T11:42:42.126Z,9.95
2018-12-03T11:44:18.995Z,10.08
2018-12-03T11:49:21.697Z,9.94
2018-12-03T11:51:09.331Z,10.08
2018-12-03T11:52:58.165Z,10.03
2018-12-03T11:55:25.087Z,10.05
2018-12-03T11:57:21.404Z,10.06
2018-12-03T11:59:33.904Z,10.10
2018-12-03T12:01:31.049Z,10.10
2018-12-03T12:05:38.787Z,10.10
2018-12-03T12:07:30.393Z,10.08
2018-12-03T12:09:20.957Z,9.92
2018-12-03T12:11:35.458Z,9.91
2018-12-03T12:13:11.728Z,9.94
2018-12-03T12:15:13.278Z,10.00
2018-12-03T12:17:11.118Z,9.87
2018-12-03T12:18:47.767Z,9.92
2018-12-03T12:20:26.865Z,9.87
2018-12-03T12:22:03.175Z,9.91
2018-12-03T12:23:39.444Z,9.98
2018-12-03T12:25:16.094Z,9.92
2018-12-03T12:26:55.104Z,9.93
2018-12-03T12:28:38.228Z,10.01
2018-12-03T12:30:36.506Z,10.02
2018-12-03T12:35:02.024Z,10.03
2018-12-03T12:36:29.416Z,9.92
2018-12-03T12:38:06.020Z,9.96
2018-12-03T12:39:42.237Z,10.00
2018-12-03T12:41:20.282Z,10.02
2018-12-03T12:42:56.690Z,9.94
2018-12-03T12:44:33.067Z,10.03
2018-12-03T12:48:41.526Z,9.90
2018-12-03T12:50:28.377Z,9.79
2018-12-03T12:52:55.281Z,9.79
2018-12-03T12:54:21.625Z,9.78
2018-12-03T12:55:58.053Z,9.81
2018-12-03T12:57:37.743Z,9.79
2018-12-03T13:01:29.108Z,9.77
2018-12-03T13:03:06.122Z,9.77
2018-12-03T13:06:44.619Z,9.70
2018-12-03T13:10:04.233Z,9.69
2018-12-03T13:11:44.221Z,9.70
2018-12-03T13:13:21.012Z,9.63
2018-12-03T13:14:57.620Z,9.65
2018-12-03T13:17:10.948Z,9.66
2018-12-03T13:18:34.110Z,9.69
2018-12-03T13:20:13.523Z,9.61
2018-12-03T13:22:10.366Z,9.69
2018-12-03T13:23:57.490Z,9.73
2018-12-03T13:25:45.216Z,9.69
2018-12-03T13:27:34.565Z,9.67
2018-12-03T13:29:22.490Z,9.69
2018-12-03T13:31:13.512Z,9.71
2018-12-03T13:33:28.471Z,9.65
2018-12-03T13:35:06.896Z,9.65
2018-12-03T13:36:43.377Z,9.61
2018-12-03T13:38:22.428Z,9.67
2018-12-03T13:40:10.039Z,9.74
2018-12-03T13:41:46.708Z,9.73
2018-12-03T13:43:29.367Z,9.66
2018-12-03T13:47:09.240Z,9.69
2018-12-03T13:53:13.482Z,9.70
2018-12-03T13:57:10.296Z,9.69
2018-12-03T13:58:47.171Z,9.66
2018-12-03T14:03:11.438Z,9.71
2018-12-03T14:07:55.238Z,9.74
2018-12-03T14:09:45.039Z,9.70
2018-12-03T14:11:33.618Z,9.71
2018-12-03T14:13:49.294Z,9.73
2018-12-03T14:16:02.931Z,9.74
2018-12-03T14:19:26.266Z,9.73
2018-12-03T14:20:39.248Z,9.74
2018-12-03T14:22:38.107Z,9.68
2018-12-03T14:24:23.898Z,9.69
2018-12-03T14:28:49.737Z,9.68
2018-12-03T14:30:37.170Z,9.62
2018-12-03T14:32:14.973Z,9.58
2018-12-03T14:34:23.750Z,9.61
2018-12-03T14:36:00.499Z,9.62
2018-12-03T14:37:39.123Z,9.64
2018-12-03T14:39:17.999Z,9.65
2018-12-03T14:40:54.697Z,9.65
2018-12-03T14:42:31.374Z,9.67
2018-12-03T14:44:07.881Z,9.64
2018-12-03T14:46:17.024Z,9.69
2018-12-03T14:49:39.030Z,9.69
2018-12-03T14:51:15.740Z,9.66
2018-12-03T14:52:52.279Z,9.64
2018-12-03T14:54:28.584Z,9.66
2018-12-03T14:56:05.829Z,9.65
2018-12-03T14:57:42.068Z,9.68
2018-12-03T14:59:18.719Z,9.67
2018-12-03T15:09:24.783Z,9.62
2018-12-03T15:16:04.286Z,9.60
2018-12-03T15:17:54.249Z,9.56
2018-12-03T15:21:54.973Z,9.56
2018-12-03T15:24:04.041Z,9.54
2018-12-03T15:34:00.366Z,9.50
2018-12-03T15:36:18.300Z,9.52
2018-12-03T15:43:43.042Z,9.46
2018-12-03T15:49:40.849Z,9.41
2018-12-03T15:53:34.662Z,9.39
2018-12-03T15:55:13.085Z,9.45
2018-12-03T15:56:49.395Z,9.43
2018-12-03T15:59:05.205Z,9.46
2018-12-03T16:05:04.396Z,9.44
2018-12-03T16:11:19.181Z,9.46
2018-12-03T16:12:56.118Z,9.44
2018-12-03T16:14:33.276Z,9.42
2018-12-03T16:16:46.947Z,9.45
2018-12-03T16:18:34.974Z,9.45
2018-12-03T16:24:28.646Z,9.47
2018-12-03T16:28:30.767Z,9.46
2018-12-03T16:30:33.415Z,9.45
2018-12-03T16:40:06.240Z,9.38
2018-12-03T16:44:17.028Z,9.37
2018-12-03T16:46:04.701Z,9.37
2018-12-03T16:49:49.389Z,9.33
2018-12-03T16:58:21.228Z,9.17
2018-12-03T17:00:14.066Z,9.13
2018-12-03T17:02:36.043Z,9.13
2018-12-03T17:04:20.545Z,9.11
2018-12-03T17:06:53.183Z,9.07
2018-12-03T17:08:59.630Z,9.11
2018-12-03T17:10:29.897Z,9.10
2018-12-03T17:12:06.347Z,9.05
2018-12-03T17:13:42.801Z,8.95
2018-12-03T17:15:39.655Z,8.93
2018-12-03T17:17:27.504Z,9.01
2018-12-03T17:19:16.964Z,9.00
2018-12-03T17:25:47.866Z,9.04
2018-12-03T17:27:32.770Z,9.07
2018-12-03T17:29:11.669Z,9.13
2018-12-03T17:30:53.243Z,9.17
2018-12-03T17:32:32.347Z,9.19
2018-12-03T17:34:09.374Z,9.21
2018-12-03T17:35:47.056Z,9.20
2018-12-03T17:37:24.296Z,9.18
2018-12-03T17:39:09.181Z,9.23
2018-12-03T17:40:55.379Z,9.19
2018-12-03T17:45:31.920Z,8.79
2018-12-03T17:51:19.604Z,8.13
2018-12-03T17:52:56.916Z,8.07
2018-12-03T17:54:35.579Z,7.94
2018-12-03T17:56:12.783Z,7.93
2018-12-03T18:00:20.902Z,7.90
2018-12-03T18:02:09.186Z,7.88
2018-12-03T18:04:19.689Z,7.91
2018-12-03T18:09:33.061Z,7.94
2018-12-03T18:11:31.078Z,8.02
2018-12-03T18:15:22.901Z,8.20
2018-12-03T18:16:52.815Z,8.34
2018-12-03T18:18:29.970Z,8.42
2018-12-03T18:20:07.325Z,8.51
2018-12-03T18:21:48.520Z,8.57
2018-12-03T18:23:55.243Z,8.59
2018-12-03T18:25:35.877Z,8.70
2018-12-03T18:27:24.257Z,8.74
2018-12-03T18:29:13.807Z,8.77
2018-12-03T18:31:41.361Z,8.77
2018-12-03T18:36:16.739Z,8.84
2018-12-03T18:40:03.248Z,8.90
2018-12-03T18:42:10.961Z,8.89
2018-12-03T18:51:52.902Z,8.92
2018-12-03T18:55:53.257Z,8.92
2018-12-03T19:04:35.329Z,8.95
2018-12-03T19:06:41.750Z,8.91
2018-12-03T19:08:55.632Z,8.91
2018-12-03T19:17:16.393Z,8.88
2018-12-03T19:21:16.453Z,8.86
2018-12-03T19:23:20.362Z,8.86
2018-12-03T19:25:08.070Z,8.87
2018-12-03T19:27:00.755Z,8.88
2018-12-03T19:28:49.763Z,8.89
2018-12-03T19:33:08.006Z,8.89
2018-12-03T19:37:04.581Z,8.88
2018-12-03T19:41:21.891Z,8.92
2018-12-03T19:43:01.456Z,8.92
2018-12-03T19:44:41.984Z,8.95
2018-12-03T19:55:24.172Z,8.92
2018-12-03T19:59:09.016Z,8.93
2018-12-03T20:00:59.208Z,8.91
2018-12-03T20:02:46.593Z,8.91
2018-12-03T20:04:55.802Z,8.94
2018-12-03T20:06:35.996Z,8.89
2018-12-03T20:15:07.159Z,8.90
2018-12-03T20:18:52.441Z,8.92
2018-12-03T20:26:06.303Z,8.94
2018-12-03T20:30:16.620Z,8.94
2018-12-03T20:35:08.720Z,8.92
2018-12-03T20:37:22.559Z,8.93
2018-12-03T20:39:13.359Z,8.90
2018-12-03T20:43:55.018Z,8.93
2018-12-03T20:46:26.080Z,8.93
2018-12-03T20:47:53.634Z,8.91
2018-12-03T20:50:21.482Z,8.90
2018-12-03T20:53:43.964Z,8.89
2018-12-03T20:55:31.270Z,8.91
2018-12-03T20:57:08.726Z,8.92
2018-12-03T20:58:48.271Z,8.90
2018-12-03T21:08:46.063Z,8.85
2018-12-03T21:10:26.707Z,8.84
2018-12-03T21:12:33.960Z,8.81
2018-12-03T21:16:39.354Z,8.78
2018-12-03T21:18:15.763Z,8.75
2018-12-03T21:19:57.301Z,8.72
2018-12-03T21:21:35.011Z,8.70
2018-12-03T21:23:15.422Z,8.71
2018-12-03T21:24:51.920Z,8.70
2018-12-03T21:26:28.004Z,8.70
2018-12-03T21:28:05.569Z,8.69
2018-12-03T21:29:42.272Z,8.70
2018-12-03T21:34:08.665Z,8.67
2018-12-03T21:42:20.477Z,8.66
2018-12-03T21:44:48.929Z,8.68
2018-12-03T21:47:05.788Z,8.68
2018-12-03T21:50:50.041Z,8.66
2018-12-03T21:53:03.943Z,8.65
2018-12-03T21:54:51.316Z,8.64
2018-12-03T21:56:37.557Z,8.63
2018-12-03T22:02:17.602Z,8.62
2018-12-03T22:04:25.441Z,8.61
2018-12-03T22:10:57.106Z,8.59
2018-12-03T22:12:34.114Z,8.56
2018-12-03T22:14:24.438Z,8.55
2018-12-03T22:18:13.509Z,8.56
2018-12-03T22:22:33.221Z,8.53
2018-12-03T22:24:48.609Z,8.52
2018-12-03T22:26:52.994Z,8.50
2018-12-03T22:28:55.963Z,8.50
2018-12-03T22:36:08.699Z,8.44
2018-12-03T22:40:19.887Z,8.45
2018-12-03T22:45:54.513Z,8.42
2018-12-03T22:48:00.469Z,8.42
2018-12-03T22:52:08.439Z,8.41
2018-12-03T22:53:45.151Z,8.41
2018-12-03T22:56:04.729Z,8.40
2018-12-03T22:57:55.009Z,8.38
2018-12-03T22:59:58.846Z,8.38
2018-12-03T23:01:37.162Z,8.39
2018-12-03T23:03:35.922Z,8.37
2018-12-03T23:05:19.000Z,8.36
2018-12-03T23:07:27.350Z,8.35
2018-12-03T23:11:41.593Z,8.32
2018-12-03T23:19:56.518Z,8.26
2018-12-03T23:23:18.436Z,8.27
2018-12-03T23:25:06.131Z,8.28
2018-12-03T23:26:54.754Z,8.24
2018-12-03T23:29:08.846Z,8.25
2018-12-03T23:33:06.130Z,8.19
2018-12-03T23:34:54.159Z,8.19
2018-12-03T23:36:42.056Z,8.17
2018-12-03T23:38:31.212Z,8.16
2018-12-03T23:40:20.136Z,8.15
2018-12-03T23:42:08.039Z,8.12
2018-12-03T23:51:49.338Z,8.04
2018-12-03T23:53:47.849Z,8.05
2018-12-03T23:55:34.886Z,8.04
2018-12-03T23:57:12.003Z,8.05
2018-12-03T23:58:49.407Z,8.04
